createdAt,value
2022-09-13T00:01:52.092Z,15.76
2022-09-13T00:04:24.482Z,15.76
2022-09-13T00:06:56.611Z,15.74
2022-09-13T00:09:28.560Z,15.74
2022-09-13T00:12:00.518Z,15.74
2022-09-13T00:14:32.762Z,15.76
2022-09-13T00:17:04.810Z,15.78
2022-09-13T00:19:37.208Z,15.78
2022-09-13T00:22:09.472Z,15.78
2022-09-13T00:24:41.963Z,15.78
2022-09-13T00:27:14.148Z,15.79
2022-09-13T00:29:46.351Z,15.79
2022-09-13T00:32:18.360Z,15.76
2022-09-13T00:34:50.563Z,15.74
2022-09-13T00:37:23.191Z,15.75
2022-09-13T00:39:55.490Z,15.75
2022-09-13T00:42:29.746Z,15.73
2022-09-13T00:45:03.517Z,15.71
2022-09-13T00:47:50.213Z,15.72
2022-09-13T00:50:26.488Z,15.69
2022-09-13T00:53:03.952Z,15.68
2022-09-13T00:55:40.011Z,15.67
2022-09-13T00:58:18.364Z,15.65
2022-09-13T01:00:51.498Z,15.65
2022-09-13T01:03:26.277Z,15.63
2022-09-13T01:05:59.405Z,15.61
2022-09-13T01:08:33.595Z,15.60
2022-09-13T01:11:08.699Z,15.59
2022-09-13T01:13:42.889Z,15.59
2022-09-13T01:16:15.119Z,15.58
2022-09-13T01:18:47.507Z,15.57
2022-09-13T01:22:03.983Z,15.57
2022-09-13T01:24:58.191Z,15.55
2022-09-13T01:27:39.416Z,15.53
2022-09-13T01:30:18.838Z,15.45
2022-09-13T01:33:13.088Z,15.55
2022-09-13T01:35:57.212Z,15.54
2022-09-13T01:38:47.706Z,15.50
2022-09-13T01:41:34.678Z,15.47
2022-09-13T01:44:15.182Z,15.48
2022-09-13T01:46:54.549Z,15.48
2022-09-13T01:49:37.075Z,15.47
2022-09-13T01:52:16.183Z,15.47
2022-09-13T01:54:55.207Z,15.47
2022-09-13T01:57:33.916Z,15.45
2022-09-13T02:00:10.662Z,15.44
2022-09-13T02:02:50.988Z,15.45
2022-09-13T02:05:29.279Z,15.45
2022-09-13T02:08:05.885Z,15.45
2022-09-13T02:10:43.193Z,15.44
2022-09-13T02:13:21.627Z,15.42
2022-09-13T02:16:01.232Z,15.38
2022-09-13T02:18:37.244Z,15.37
2022-09-13T02:21:13.959Z,15.36
2022-09-13T02:23:52.053Z,15.21
2022-09-13T02:26:26.905Z,15.33
2022-09-13T02:28:59.683Z,15.30
2022-09-13T02:31:36.346Z,15.30
2022-09-13T02:34:13.858Z,15.30
2022-09-13T02:36:49.781Z,15.30
2022-09-13T02:39:25.969Z,15.30
2022-09-13T02:42:03.667Z,15.27
2022-09-13T02:44:38.113Z,15.28
2022-09-13T02:47:25.228Z,15.29
2022-09-13T02:50:09.032Z,15.27
2022-09-13T02:52:50.674Z,15.26
2022-09-13T02:55:29.519Z,15.24
2022-09-13T02:58:08.503Z,15.26
2022-09-13T03:00:40.872Z,15.26
2022-09-13T03:03:16.954Z,15.25
2022-09-13T03:05:49.764Z,15.26
2022-09-13T03:08:23.451Z,15.17
2022-09-13T03:11:01.841Z,15.25
2022-09-13T03:14:02.943Z,15.23
2022-09-13T03:16:57.123Z,15.21
2022-09-13T03:19:49.640Z,15.19
2022-09-13T03:22:45.698Z,15.16
2022-09-13T03:25:28.573Z,15.07
2022-09-13T03:28:11.270Z,15.15
2022-09-13T03:30:49.792Z,15.13
2022-09-13T03:33:30.455Z,14.93
2022-09-13T03:36:13.031Z,15.10
2022-09-13T03:38:54.962Z,15.08
2022-09-13T03:41:33.426Z,15.06
2022-09-13T03:44:11.432Z,15.04
2022-09-13T03:46:46.879Z,15.03
2022-09-13T03:49:20.683Z,15.02
2022-09-13T03:51:53.971Z,15.01
2022-09-13T03:54:28.338Z,15.00
2022-09-13T03:57:16.405Z,14.99
2022-09-13T03:59:51.033Z,14.98
2022-09-13T04:02:25.272Z,14.96
2022-09-13T04:04:57.687Z,14.94
2022-09-13T04:07:30.310Z,14.92
2022-09-13T04:10:02.172Z,14.92
2022-09-13T04:12:34.651Z,14.91
2022-09-13T04:15:08.235Z,14.88
2022-09-13T04:17:40.381Z,14.85
2022-09-13T04:20:12.561Z,14.85
2022-09-13T04:22:45.586Z,14.84
2022-09-13T04:25:18.388Z,14.82
2022-09-13T04:27:50.606Z,14.81
2022-09-13T04:30:23.435Z,14.80
2022-09-13T04:32:58.774Z,14.79
2022-09-13T04:35:31.311Z,14.79
2022-09-13T04:38:03.864Z,14.81
2022-09-13T04:40:37.376Z,14.81
2022-09-13T04:43:11.020Z,14.79
2022-09-13T04:45:44.387Z,14.79
2022-09-13T04:48:17.182Z,14.80
2022-09-13T04:50:50.197Z,14.82
2022-09-13T04:53:22.817Z,14.83
2022-09-13T04:55:55.196Z,14.85
2022-09-13T04:58:27.229Z,14.87
2022-09-13T05:01:03.701Z,14.89
2022-09-13T05:03:37.208Z,14.82
2022-09-13T05:06:11.866Z,14.91
2022-09-13T05:08:44.568Z,14.91
2022-09-13T05:11:16.677Z,14.91
2022-09-13T05:13:54.778Z,14.91
2022-09-13T05:16:28.769Z,14.91
2022-09-13T05:19:01.673Z,14.93
2022-09-13T05:21:34.165Z,14.92
2022-09-13T05:24:06.630Z,14.94
2022-09-13T05:26:39.710Z,14.94
2022-09-13T05:29:11.822Z,14.95
2022-09-13T05:31:45.735Z,14.96
2022-09-13T05:34:19.759Z,14.97
2022-09-13T05:36:54.430Z,15.01
2022-09-13T05:39:33.867Z,15.04
2022-09-13T05:42:16.340Z,15.09
2022-09-13T05:44:48.878Z,15.12
2022-09-13T05:47:21.011Z,15.14
2022-09-13T05:50:09.952Z,15.17
2022-09-13T05:52:42.932Z,15.17
2022-09-13T05:55:17.424Z,15.21
2022-09-13T05:57:50.568Z,15.19
2022-09-13T06:00:22.949Z,15.28
2022-09-13T06:02:55.105Z,15.31
2022-09-13T06:05:31.656Z,15.39
2022-09-13T06:08:04.693Z,15.49
2022-09-13T06:10:36.810Z,15.59
2022-09-13T06:13:08.865Z,15.67
2022-09-13T06:15:43.351Z,15.72
2022-09-13T06:18:14.055Z,15.80
2022-09-13T06:20:46.412Z,15.86
2022-09-13T06:23:18.875Z,15.85
2022-09-13T06:25:51.427Z,15.99
2022-09-13T06:28:23.374Z,16.14
2022-09-13T06:31:00.401Z,16.25
2022-09-13T06:33:33.895Z,16.38
2022-09-13T06:36:08.298Z,16.51
2022-09-13T06:38:39.895Z,16.57
2022-09-13T06:41:13.602Z,16.65
2022-09-13T06:43:45.671Z,16.73
2022-09-13T06:46:24.572Z,16.78
2022-09-13T06:49:00.160Z,16.88
2022-09-13T06:51:32.932Z,16.93
2022-09-13T06:54:05.750Z,16.95
2022-09-13T06:56:39.363Z,16.97
2022-09-13T06:59:12.975Z,16.93
2022-09-13T07:01:46.203Z,16.94
2022-09-13T07:04:21.042Z,17.01
2022-09-13T07:06:51.781Z,17.05
2022-09-13T07:09:24.736Z,17.05
2022-09-13T07:11:58.148Z,17.12
2022-09-13T07:14:31.626Z,17.11
2022-09-13T07:17:04.813Z,17.14
2022-09-13T07:19:37.253Z,17.22
2022-09-13T07:22:09.533Z,17.30
2022-09-13T07:24:41.515Z,17.35
2022-09-13T07:27:15.241Z,17.30
2022-09-13T07:29:47.675Z,17.35
2022-09-13T07:32:20.173Z,17.38
2022-09-13T07:34:52.773Z,17.40
2022-09-13T07:37:25.079Z,17.32
2022-09-13T07:39:57.642Z,17.39
2022-09-13T07:42:29.956Z,17.53
2022-09-13T07:45:02.293Z,17.66
2022-09-13T07:47:36.516Z,17.73
2022-09-13T07:50:09.746Z,17.79
2022-09-13T07:52:42.321Z,17.90
2022-09-13T07:55:14.592Z,18.05
2022-09-13T07:57:46.772Z,18.07
2022-09-13T08:00:19.280Z,18.14
2022-09-13T08:02:51.750Z,18.15
2022-09-13T08:05:23.751Z,18.26
2022-09-13T08:07:56.026Z,18.38
2022-09-13T08:10:28.301Z,18.46
2022-09-13T08:13:00.551Z,18.46
2022-09-13T08:15:32.655Z,18.51
2022-09-13T08:18:06.709Z,18.56
2022-09-13T08:20:40.657Z,18.52
2022-09-13T08:23:14.737Z,18.64
2022-09-13T08:25:46.895Z,18.67
2022-09-13T08:28:26.883Z,18.76
2022-09-13T08:31:06.303Z,18.76
2022-09-13T08:33:44.190Z,18.87
2022-09-13T08:36:20.063Z,18.86
2022-09-13T08:38:54.394Z,18.90
2022-09-13T08:41:49.048Z,18.89
2022-09-13T08:44:27.350Z,19.02
2022-09-13T08:47:15.126Z,19.12
2022-09-13T08:49:51.459Z,19.07
2022-09-13T08:52:34.209Z,19.03
2022-09-13T08:55:22.665Z,19.08
2022-09-13T08:58:02.274Z,19.06
2022-09-13T09:00:38.712Z,18.97
2022-09-13T09:03:30.353Z,19.02
2022-09-13T09:06:02.614Z,18.97
2022-09-13T09:08:40.370Z,18.99
2022-09-13T09:11:20.401Z,19.05
2022-09-13T09:13:57.638Z,18.89
2022-09-13T09:16:38.914Z,19.00
2022-09-13T09:19:21.186Z,19.14
2022-09-13T09:21:54.311Z,19.19
2022-09-13T09:24:27.396Z,19.30
2022-09-13T09:27:15.747Z,19.31
2022-09-13T09:29:50.684Z,19.32
2022-09-13T09:32:29.859Z,19.30
2022-09-13T09:35:18.931Z,19.32
2022-09-13T09:38:07.126Z,19.30
2022-09-13T09:40:40.108Z,19.38
2022-09-13T09:43:21.709Z,19.32
2022-09-13T09:45:57.389Z,19.23
2022-09-13T09:48:36.944Z,19.27
2022-09-13T09:51:13.331Z,19.34
2022-09-13T09:53:50.488Z,19.37
2022-09-13T09:56:30.122Z,19.32
2022-09-13T09:59:03.562Z,19.32
2022-09-13T10:01:40.281Z,19.21
2022-09-13T10:04:22.828Z,19.25
2022-09-13T10:07:24.664Z,19.33
2022-09-13T10:10:06.380Z,19.51
2022-09-13T10:12:41.108Z,19.56
2022-09-13T10:15:20.748Z,19.63
2022-09-13T10:18:39.969Z,19.75
2022-09-13T10:21:11.487Z,19.75
2022-09-13T10:23:43.511Z,19.87
2022-09-13T10:26:19.232Z,19.94
2022-09-13T10:28:57.936Z,20.11
2022-09-13T10:31:35.683Z,20.26
2022-09-13T10:34:14.284Z,20.30
2022-09-13T10:36:55.598Z,20.31
2022-09-13T10:39:30.374Z,20.22
2022-09-13T10:42:05.069Z,20.37
2022-09-13T10:44:42.454Z,20.43
2022-09-13T10:47:21.193Z,20.40
2022-09-13T10:49:55.631Z,20.33
2022-09-13T10:52:31.183Z,20.37
2022-09-13T10:55:31.354Z,20.45
2022-09-13T10:58:20.550Z,20.53
2022-09-13T11:01:42.220Z,20.47
2022-09-13T11:04:46.375Z,20.25
2022-09-13T11:07:42.281Z,20.19
2022-09-13T11:10:20.613Z,20.22
2022-09-13T11:12:59.980Z,20.18
2022-09-13T11:15:48.425Z,20.25
2022-09-13T11:18:55.774Z,20.33
2022-09-13T11:21:40.817Z,20.32
2022-09-13T11:24:40.383Z,20.31
2022-09-13T11:27:24.994Z,20.25
2022-09-13T11:30:10.268Z,20.34
2022-09-13T11:32:58.974Z,20.34
2022-09-13T11:35:48.367Z,20.28
2022-09-13T11:38:35.334Z,20.32
2022-09-13T11:41:20.994Z,20.09
2022-09-13T11:44:13.688Z,20.17
2022-09-13T11:46:53.797Z,20.20
2022-09-13T11:49:39.128Z,20.19
2022-09-13T11:52:24.459Z,20.21
2022-09-13T11:55:05.473Z,20.30
2022-09-13T11:57:42.760Z,20.29
2022-09-13T12:00:23.816Z,20.23
2022-09-13T12:03:04.770Z,20.30
2022-09-13T12:05:42.671Z,20.29
2022-09-13T12:08:19.511Z,20.30
2022-09-13T12:10:55.911Z,20.18
2022-09-13T12:13:31.387Z,20.25
2022-09-13T12:16:07.852Z,20.28
2022-09-13T12:18:43.982Z,20.27
2022-09-13T12:21:19.520Z,20.31
2022-09-13T12:23:57.679Z,20.13
2022-09-13T12:26:36.936Z,20.32
2022-09-13T12:29:15.873Z,20.33
2022-09-13T12:31:49.173Z,20.33
2022-09-13T12:34:26.615Z,20.35
2022-09-13T12:37:22.028Z,20.34
2022-09-13T12:40:18.722Z,20.27
2022-09-13T12:43:27.422Z,20.17
2022-09-13T12:46:16.162Z,20.15
2022-09-13T12:49:18.629Z,20.20
2022-09-13T12:52:05.853Z,20.28
2022-09-13T12:55:45.395Z,20.32
2022-09-13T12:58:35.970Z,20.21
2022-09-13T13:01:15.767Z,20.31
2022-09-13T13:03:54.662Z,20.48
2022-09-13T13:06:35.290Z,20.59
2022-09-13T13:09:28.461Z,20.67
2022-09-13T13:12:02.340Z,20.78
2022-09-13T13:14:53.733Z,20.83
2022-09-13T13:17:48.054Z,20.93
2022-09-13T13:20:47.105Z,21.13
2022-09-13T13:23:28.313Z,21.32
2022-09-13T13:26:10.650Z,21.35
2022-09-13T13:29:15.590Z,21.36
2022-09-13T13:32:05.013Z,21.36
2022-09-13T13:34:44.579Z,21.36
2022-09-13T13:37:45.872Z,21.38
2022-09-13T13:40:29.289Z,21.29
2022-09-13T13:43:35.044Z,21.15
2022-09-13T13:46:30.953Z,21.06
2022-09-13T13:49:33.764Z,21.12
2022-09-13T13:52:36.124Z,21.17
2022-09-13T13:55:49.683Z,21.18
2022-09-13T13:58:43.727Z,21.26
2022-09-13T14:01:19.486Z,21.23
2022-09-13T14:04:18.727Z,21.10
2022-09-13T14:07:06.468Z,21.01
2022-09-13T14:09:58.806Z,20.81
2022-09-13T14:12:42.290Z,20.88
2022-09-13T14:15:40.729Z,20.82
2022-09-13T14:18:40.373Z,20.75
2022-09-13T14:21:23.650Z,20.74
2022-09-13T14:24:16.635Z,20.78
2022-09-13T14:26:50.041Z,20.79
2022-09-13T14:29:25.316Z,20.82
2022-09-13T14:32:04.653Z,20.88
2022-09-13T14:34:39.253Z,20.83
2022-09-13T14:37:18.415Z,20.81
2022-09-13T14:40:00.548Z,20.78
2022-09-13T14:42:43.362Z,20.74
2022-09-13T14:45:18.338Z,20.83
2022-09-13T14:47:58.656Z,20.68
2022-09-13T14:50:34.863Z,20.83
2022-09-13T14:53:13.199Z,20.80
2022-09-13T14:55:51.789Z,20.63
2022-09-13T14:58:27.631Z,20.70
2022-09-13T15:01:04.601Z,20.76
2022-09-13T15:03:37.541Z,20.72
2022-09-13T15:06:21.321Z,20.69
2022-09-13T15:08:55.057Z,20.75
2022-09-13T15:11:35.914Z,20.75
2022-09-13T15:14:25.616Z,20.64
2022-09-13T15:17:07.409Z,20.59
2022-09-13T15:19:42.022Z,20.62
2022-09-13T15:22:25.342Z,20.62
2022-09-13T15:25:01.882Z,20.55
2022-09-13T15:27:46.349Z,20.43
2022-09-13T15:30:27.693Z,20.46
2022-09-13T15:33:21.346Z,20.49
2022-09-13T15:35:54.964Z,20.47
2022-09-13T15:38:31.726Z,20.47
2022-09-13T15:41:19.381Z,20.48
2022-09-13T15:43:52.128Z,20.46
2022-09-13T15:46:25.266Z,20.41
2022-09-13T15:48:59.848Z,20.31
2022-09-13T15:51:35.542Z,20.10
2022-09-13T15:54:14.691Z,20.05
2022-09-13T15:56:51.475Z,20.00
2022-09-13T15:59:24.489Z,20.16
2022-09-13T16:01:59.307Z,20.31
2022-09-13T16:04:32.780Z,20.36
2022-09-13T16:07:04.855Z,20.29
2022-09-13T16:09:38.895Z,20.25
2022-09-13T16:12:11.415Z,20.35
2022-09-13T16:14:43.544Z,20.25
2022-09-13T16:17:24.594Z,20.09
2022-09-13T16:19:56.847Z,19.93
2022-09-13T16:22:29.137Z,19.81
2022-09-13T16:25:01.135Z,19.70
2022-09-13T16:27:34.159Z,19.71
2022-09-13T16:30:08.145Z,19.81
2022-09-13T16:32:41.499Z,19.94
2022-09-13T16:35:15.992Z,19.98
2022-09-13T16:37:51.533Z,19.95
2022-09-13T16:40:24.157Z,19.90
2022-09-13T16:42:56.165Z,19.86
2022-09-13T16:45:28.219Z,19.89
2022-09-13T16:48:00.475Z,19.84
2022-09-13T16:50:34.953Z,19.86
2022-09-13T16:53:05.868Z,19.78
2022-09-13T16:55:39.053Z,19.79
2022-09-13T16:58:11.028Z,19.77
2022-09-13T17:00:45.436Z,19.74
2022-09-13T17:03:17.702Z,19.74
2022-09-13T17:06:00.217Z,19.75
2022-09-13T17:08:33.286Z,19.59
2022-09-13T17:11:07.985Z,19.57
2022-09-13T17:13:38.564Z,19.51
2022-09-13T17:16:23.937Z,19.54
2022-09-13T17:18:58.114Z,19.56
2022-09-13T17:21:31.466Z,19.53
2022-09-13T17:24:04.210Z,19.56
2022-09-13T17:26:36.666Z,19.56
2022-09-13T17:29:08.742Z,19.59
2022-09-13T17:31:41.244Z,19.60
2022-09-13T17:34:14.262Z,19.66
2022-09-13T17:36:50.508Z,19.67
2022-09-13T17:39:23.854Z,19.53
2022-09-13T17:41:55.820Z,19.60
2022-09-13T17:44:28.617Z,19.60
2022-09-13T17:47:02.200Z,19.51
2022-09-13T17:49:34.860Z,19.43
2022-09-13T17:52:08.178Z,19.42
2022-09-13T17:54:40.285Z,19.45
2022-09-13T17:57:15.667Z,19.41
2022-09-13T17:59:48.129Z,19.54
2022-09-13T18:02:21.748Z,19.46
2022-09-13T18:04:54.069Z,19.45
2022-09-13T18:07:26.712Z,19.47
2022-09-13T18:09:58.900Z,19.38
2022-09-13T18:12:31.272Z,19.43
2022-09-13T18:15:04.190Z,19.38
2022-09-13T18:17:36.181Z,19.51
2022-09-13T18:20:09.499Z,19.48
2022-09-13T18:22:42.236Z,19.43
2022-09-13T18:25:14.205Z,19.29
2022-09-13T18:27:46.221Z,19.21
2022-09-13T18:30:18.717Z,19.23
2022-09-13T18:32:50.722Z,19.23
2022-09-13T18:35:23.032Z,19.15
2022-09-13T18:37:55.410Z,19.21
2022-09-13T18:40:28.111Z,19.19
2022-09-13T18:43:00.282Z,19.18
2022-09-13T18:45:32.318Z,19.17
2022-09-13T18:48:04.521Z,19.19
2022-09-13T18:50:36.723Z,19.13
2022-09-13T18:53:08.807Z,19.11
2022-09-13T18:55:41.013Z,19.13
2022-09-13T18:58:13.687Z,19.10
2022-09-13T19:00:46.559Z,19.04
2022-09-13T19:03:18.768Z,19.02
2022-09-13T19:05:52.625Z,18.99
2022-09-13T19:08:25.024Z,18.96
2022-09-13T19:11:00.886Z,18.95
2022-09-13T19:13:33.266Z,18.92
2022-09-13T19:16:07.630Z,18.82
2022-09-13T19:18:41.674Z,18.79
2022-09-13T19:21:16.569Z,18.80
2022-09-13T19:23:58.905Z,18.75
2022-09-13T19:26:34.699Z,18.54
2022-09-13T19:29:11.718Z,18.68
2022-09-13T19:31:47.675Z,18.64
2022-09-13T19:34:23.021Z,18.63
2022-09-13T19:36:58.374Z,18.63
2022-09-13T19:39:31.391Z,18.59
2022-09-13T19:42:05.502Z,18.58
2022-09-13T19:44:37.585Z,18.49
2022-09-13T19:48:02.020Z,18.45
2022-09-13T19:50:02.566Z,18.38
2022-09-13T19:52:34.755Z,18.34
2022-09-13T19:55:07.871Z,18.34
2022-09-13T19:57:44.826Z,18.35
2022-09-13T20:00:18.372Z,18.33
2022-09-13T20:02:51.896Z,18.32
2022-09-13T20:05:28.048Z,18.34
2022-09-13T20:08:01.093Z,18.33
2022-09-13T20:10:34.041Z,18.30
2022-09-13T20:13:07.434Z,18.28
2022-09-13T20:15:41.308Z,18.28
2022-09-13T20:18:15.655Z,18.26
2022-09-13T20:20:48.835Z,18.24
2022-09-13T20:23:21.230Z,18.22
2022-09-13T20:25:53.444Z,18.11
2022-09-13T20:28:26.209Z,18.15
2022-09-13T20:31:00.329Z,18.14
2022-09-13T20:33:33.227Z,18.13
2022-09-13T20:36:08.431Z,18.11
2022-09-13T20:38:41.794Z,18.08
2022-09-13T20:41:18.665Z,18.06
2022-09-13T20:43:51.530Z,18.03
2022-09-13T20:46:24.582Z,18.00
2022-09-13T20:48:57.102Z,17.98
2022-09-13T20:51:33.945Z,17.93
2022-09-13T20:54:07.262Z,17.90
2022-09-13T20:56:39.228Z,17.84
2022-09-13T20:59:14.793Z,17.80
2022-09-13T21:01:47.350Z,17.76
2022-09-13T21:04:19.889Z,17.75
2022-09-13T21:07:14.304Z,17.71
2022-09-13T21:09:47.029Z,17.63
2022-09-13T21:12:19.811Z,17.59
2022-09-13T21:14:52.265Z,17.56
2022-09-13T21:17:24.732Z,17.51
2022-09-13T21:19:56.738Z,17.49
2022-09-13T21:22:29.317Z,17.47
2022-09-13T21:25:01.353Z,17.43
2022-09-13T21:27:33.721Z,17.42
2022-09-13T21:30:08.413Z,17.43
2022-09-13T21:32:41.047Z,17.40
2022-09-13T21:35:13.461Z,17.41
2022-09-13T21:37:45.453Z,17.39
2022-09-13T21:40:17.907Z,17.40
2022-09-13T21:42:50.229Z,17.37
2022-09-13T21:45:22.434Z,17.27
2022-09-13T21:47:54.416Z,17.42
2022-09-13T21:50:26.668Z,17.42
2022-09-13T21:53:01.839Z,17.45
2022-09-13T21:55:40.046Z,17.48
2022-09-13T21:58:12.525Z,17.49
2022-09-13T22:00:44.467Z,17.51
2022-09-13T22:03:16.385Z,17.53
2022-09-13T22:05:55.774Z,17.56
2022-09-13T22:08:30.243Z,17.53
2022-09-13T22:11:07.916Z,17.55
2022-09-13T22:13:45.466Z,17.56
2022-09-13T22:16:23.351Z,17.58
2022-09-13T22:18:57.935Z,17.51
2022-09-13T22:21:32.226Z,17.59
2022-09-13T22:24:05.958Z,17.61
2022-09-13T22:26:40.636Z,17.62
2022-09-13T22:29:13.195Z,17.60
2022-09-13T22:31:48.240Z,17.63
2022-09-13T22:34:23.030Z,17.63
2022-09-13T22:36:55.915Z,17.67
2022-09-13T22:39:27.940Z,17.70
2022-09-13T22:42:00.938Z,17.78
2022-09-13T22:44:33.393Z,17.74
2022-09-13T22:47:05.537Z,17.63
2022-09-13T22:49:37.461Z,17.67
2022-09-13T22:52:09.393Z,17.67
2022-09-13T22:54:41.451Z,17.68
2022-09-13T22:57:13.368Z,17.70
2022-09-13T22:59:45.461Z,17.72
2022-09-13T23:02:17.485Z,17.79
2022-09-13T23:04:49.475Z,17.83
2022-09-13T23:07:21.873Z,17.77
2022-09-13T23:09:53.823Z,17.88
2022-09-13T23:12:25.955Z,17.90
2022-09-13T23:14:58.078Z,17.87
2022-09-13T23:17:30.106Z,17.87
2022-09-13T23:20:02.232Z,17.88
2022-09-13T23:22:34.407Z,17.85
2022-09-13T23:25:07.316Z,17.88
2022-09-13T23:27:39.767Z,17.84
2022-09-13T23:30:13.226Z,17.81
2022-09-13T23:32:47.700Z,17.82
2022-09-13T23:35:19.804Z,17.77
2022-09-13T23:37:52.166Z,17.79
2022-09-13T23:40:24.222Z,17.78
2022-09-13T23:42:56.425Z,17.72
2022-09-13T23:45:29.247Z,17.73
2022-09-13T23:48:01.363Z,17.74
2022-09-13T23:50:33.555Z,17.76
2022-09-13T23:53:05.676Z,17.72
2022-09-13T23:55:37.643Z,17.66
2022-09-13T23:58:10.533Z,17.66
